createdAt,value
2019-01-23T00:01:17.795Z,21.53
2019-01-23T00:03:45.563Z,19.97
2019-01-23T00:06:13.215Z,21.37
2019-01-23T00:08:40.848Z,20.03
2019-01-23T00:11:08.468Z,21.33
2019-01-23T00:13:36.060Z,21.97
2019-01-23T00:16:03.879Z,19.87
2019-01-23T00:18:31.468Z,18.80
2019-01-23T00:20:59.074Z,17.87
2019-01-23T00:23:26.679Z,16.37
2019-01-23T00:25:54.383Z,16.20
2019-01-23T00:28:22.028Z,17.80
2019-01-23T00:30:49.676Z,18.80
2019-01-23T00:33:17.276Z,18.00
2019-01-23T00:35:44.862Z,16.30
2019-01-23T00:38:12.455Z,17.33
2019-01-23T00:40:40.075Z,19.37
2019-01-23T00:43:07.668Z,18.63
2019-01-23T00:45:35.240Z,19.17
2019-01-23T00:48:02.904Z,20.60
2019-01-23T00:50:31.851Z,17.63
2019-01-23T00:52:59.449Z,18.80
2019-01-23T00:55:27.083Z,18.30
2019-01-23T00:57:54.720Z,17.80
2019-01-23T01:00:23.926Z,18.43
2019-01-23T01:02:51.599Z,17.57
2019-01-23T01:05:19.399Z,17.43
2019-01-23T01:07:47.419Z,17.97
2019-01-23T01:10:15.645Z,16.73
2019-01-23T01:12:43.253Z,17.17
2019-01-23T01:15:13.501Z,17.27
2019-01-23T01:17:40.403Z,15.97
2019-01-23T01:20:08.955Z,15.50
2019-01-23T01:22:36.866Z,14.60
2019-01-23T01:25:06.249Z,13.40
2019-01-23T01:27:33.815Z,13.33
2019-01-23T01:30:01.416Z,14.53
2019-01-23T01:32:29.178Z,14.70
2019-01-23T01:34:56.810Z,15.20
2019-01-23T01:37:24.520Z,14.30
2019-01-23T01:39:52.138Z,12.97
2019-01-23T01:42:19.968Z,14.60
2019-01-23T01:44:47.623Z,12.63
2019-01-23T01:47:15.241Z,14.90
2019-01-23T01:49:43.140Z,13.17
2019-01-23T01:52:11.062Z,14.47
2019-01-23T01:54:38.699Z,15.90
2019-01-23T01:57:06.292Z,15.20
2019-01-23T01:59:34.247Z,15.77
2019-01-23T02:02:01.860Z,17.13
2019-01-23T02:04:29.454Z,16.33
2019-01-23T02:06:57.063Z,16.87
2019-01-23T02:09:24.677Z,16.23
2019-01-23T02:11:52.400Z,17.10
2019-01-23T02:14:20.182Z,15.80
2019-01-23T02:16:47.943Z,15.53
2019-01-23T02:19:15.563Z,16.03
2019-01-23T02:21:43.171Z,15.07
2019-01-23T02:24:10.824Z,15.43
2019-01-23T02:26:38.446Z,14.23
2019-01-23T02:29:09.679Z,14.23
2019-01-23T02:31:35.449Z,14.87
2019-01-23T02:34:03.465Z,14.73
2019-01-23T02:36:31.056Z,15.37
2019-01-23T02:38:58.696Z,14.77
2019-01-23T02:41:26.365Z,14.30
2019-01-23T02:43:54.247Z,14.87
2019-01-23T02:46:21.908Z,14.60
2019-01-23T02:48:49.559Z,15.27
2019-01-23T02:51:17.276Z,14.17
2019-01-23T02:53:44.863Z,15.70
2019-01-23T02:56:12.741Z,14.90
2019-01-23T02:58:40.316Z,15.27
2019-01-23T03:01:07.904Z,16.00
2019-01-23T03:03:35.524Z,16.13
2019-01-23T03:06:03.493Z,16.57
2019-01-23T03:08:31.125Z,15.30
2019-01-23T03:10:58.712Z,16.60
2019-01-23T03:13:26.408Z,15.33
2019-01-23T03:15:54.097Z,16.43
2019-01-23T03:18:21.738Z,16.77
2019-01-23T03:20:49.404Z,17.53
2019-01-23T03:23:17.064Z,16.43
2019-01-23T03:25:44.996Z,15.83
2019-01-23T03:28:12.584Z,17.50
2019-01-23T03:30:40.219Z,18.20
2019-01-23T03:33:07.809Z,18.60
2019-01-23T03:35:35.393Z,18.70
2019-01-23T03:38:03.100Z,18.60
2019-01-23T03:40:30.675Z,16.40
2019-01-23T03:43:00.959Z,17.83
2019-01-23T03:45:28.625Z,16.90
2019-01-23T03:47:56.221Z,18.07
2019-01-23T03:50:23.872Z,16.97
2019-01-23T03:52:51.472Z,17.33
2019-01-23T03:55:19.474Z,16.87
2019-01-23T03:57:47.058Z,15.30
2019-01-23T04:00:16.352Z,15.10
2019-01-23T04:02:44.218Z,16.17
2019-01-23T04:05:12.105Z,16.27
2019-01-23T04:07:39.912Z,16.77
2019-01-23T04:10:09.968Z,13.93
2019-01-23T04:12:37.670Z,15.30
2019-01-23T04:15:06.715Z,13.73
2019-01-23T04:17:34.317Z,14.50
2019-01-23T04:20:02.045Z,15.17
2019-01-23T04:22:29.774Z,14.27
2019-01-23T04:24:57.364Z,14.50
2019-01-23T04:27:25.383Z,13.07
2019-01-23T04:29:53.025Z,14.50
2019-01-23T04:32:20.615Z,12.33
2019-01-23T04:34:48.980Z,13.67
2019-01-23T04:37:16.564Z,14.23
2019-01-23T04:39:44.410Z,14.10
2019-01-23T04:42:12.014Z,14.13
2019-01-23T04:44:39.671Z,11.33
2019-01-23T04:47:07.371Z,12.87
2019-01-23T04:49:35.024Z,12.70
2019-01-23T04:52:22.059Z,12.47
2019-01-23T04:54:49.661Z,12.60
2019-01-23T04:57:17.247Z,11.77
2019-01-23T04:59:47.290Z,12.20
2019-01-23T05:02:14.896Z,12.67
2019-01-23T05:04:42.564Z,11.43
2019-01-23T05:07:10.149Z,11.60
2019-01-23T05:09:37.831Z,11.60
2019-01-23T05:12:05.509Z,10.33
2019-01-23T05:14:33.229Z,12.30
2019-01-23T05:17:00.812Z,11.87
2019-01-23T05:19:28.448Z,11.60
2019-01-23T05:21:56.060Z,12.27
2019-01-23T05:24:23.672Z,12.13
2019-01-23T05:26:51.278Z,12.70
2019-01-23T05:29:18.935Z,12.83
2019-01-23T05:31:46.528Z,12.87
2019-01-23T05:34:14.176Z,13.63
2019-01-23T05:36:41.781Z,12.40
2019-01-23T05:39:09.441Z,14.23
2019-01-23T05:41:37.126Z,11.60
2019-01-23T05:44:05.012Z,12.33
2019-01-23T05:46:32.624Z,12.60
2019-01-23T05:49:00.220Z,14.77
2019-01-23T05:51:28.047Z,14.73
2019-01-23T05:53:55.634Z,13.33
2019-01-23T05:56:23.193Z,14.00
2019-01-23T05:58:50.788Z,13.07
2019-01-23T06:01:18.424Z,13.27
2019-01-23T06:03:46.048Z,14.20
2019-01-23T06:06:13.640Z,15.60
2019-01-23T06:08:41.224Z,17.20
2019-01-23T06:11:08.874Z,16.43
2019-01-23T06:13:36.713Z,14.97
2019-01-23T06:16:04.293Z,14.13
2019-01-23T06:18:31.980Z,14.33
2019-01-23T06:20:59.596Z,16.13
2019-01-23T06:23:27.227Z,14.23
2019-01-23T06:25:54.812Z,14.70
2019-01-23T06:28:22.433Z,15.00
2019-01-23T06:30:50.053Z,16.50
2019-01-23T06:33:17.640Z,19.50
2019-01-23T06:35:45.328Z,14.83
2019-01-23T06:38:13.275Z,15.40
2019-01-23T06:40:40.892Z,15.20
2019-01-23T06:43:08.573Z,14.97
2019-01-23T06:45:36.140Z,13.73
2019-01-23T06:48:04.037Z,13.73
2019-01-23T06:50:31.616Z,14.83
2019-01-23T06:52:59.210Z,15.40
2019-01-23T06:55:26.791Z,15.20
2019-01-23T06:57:54.405Z,14.10
2019-01-23T07:00:23.941Z,14.97
2019-01-23T07:02:51.836Z,14.77
2019-01-23T07:05:19.488Z,15.53
2019-01-23T07:07:47.111Z,14.43
2019-01-23T07:10:17.263Z,13.60
2019-01-23T07:12:44.860Z,13.37
2019-01-23T07:15:12.466Z,14.63
2019-01-23T07:17:40.050Z,14.33
2019-01-23T07:20:11.032Z,14.47
2019-01-23T07:22:38.639Z,14.00
2019-01-23T07:25:07.120Z,15.30
2019-01-23T07:27:34.723Z,13.23
2019-01-23T07:30:02.332Z,14.40
2019-01-23T07:32:29.927Z,12.13
2019-01-23T07:34:57.562Z,14.07
2019-01-23T07:37:25.132Z,12.67
2019-01-23T07:39:52.834Z,12.33
2019-01-23T07:42:20.415Z,11.63
2019-01-23T07:44:48.317Z,12.47
2019-01-23T07:47:15.880Z,11.10
2019-01-23T07:49:43.464Z,11.77
2019-01-23T07:52:11.056Z,12.83
2019-01-23T07:54:38.720Z,12.33
2019-01-23T07:57:06.670Z,10.30
2019-01-23T07:59:34.230Z,10.33
2019-01-23T08:02:01.796Z,11.20
2019-01-23T08:04:29.404Z,10.07
2019-01-23T08:06:56.988Z,10.00
2019-01-23T08:09:24.620Z,9.60
2019-01-23T08:11:52.177Z,10.93
2019-01-23T08:14:19.801Z,9.27
2019-01-23T08:16:47.388Z,9.87
2019-01-23T08:19:14.984Z,10.77
2019-01-23T08:21:42.616Z,11.60
2019-01-23T08:24:10.380Z,9.93
2019-01-23T08:26:37.989Z,11.67
2019-01-23T08:29:05.740Z,12.17
2019-01-23T08:31:33.308Z,11.27
2019-01-23T08:34:00.916Z,18.60
2019-01-23T08:36:28.542Z,11.83
2019-01-23T08:38:56.129Z,20.57
2019-01-23T08:41:23.708Z,25.60
2019-01-23T08:43:51.307Z,13.20
2019-01-23T08:46:18.888Z,10.37
2019-01-23T08:48:46.512Z,10.67
2019-01-23T08:51:14.273Z,9.40
2019-01-23T08:53:41.940Z,9.87
2019-01-23T08:56:09.512Z,9.83
2019-01-23T08:58:37.294Z,9.63
2019-01-23T09:01:04.912Z,10.37
2019-01-23T09:03:32.504Z,11.20
2019-01-23T09:06:00.062Z,11.90
2019-01-23T09:08:27.699Z,9.27
2019-01-23T09:10:55.264Z,9.20
2019-01-23T09:13:22.848Z,9.37
2019-01-23T09:15:50.416Z,10.37
2019-01-23T09:18:18.042Z,9.17
2019-01-23T09:20:45.642Z,9.37
2019-01-23T09:23:13.320Z,9.40
2019-01-23T09:25:40.920Z,10.57
2019-01-23T09:28:47.589Z,10.60
2019-01-23T09:31:59.404Z,10.50
2019-01-23T09:35:23.684Z,10.93
2019-01-23T09:38:23.616Z,11.07
2019-01-23T09:41:22.739Z,10.17
2019-01-23T09:44:32.495Z,11.23
2019-01-23T09:47:31.040Z,9.80
2019-01-23T09:50:04.996Z,11.03
2019-01-23T09:53:00.237Z,11.77
2019-01-23T09:55:27.840Z,10.47
2019-01-23T09:58:00.829Z,12.30
2019-01-23T10:00:31.804Z,12.67
2019-01-23T10:02:58.224Z,12.00
2019-01-23T10:05:25.811Z,11.70
2019-01-23T10:07:53.429Z,11.33
2019-01-23T10:10:21.078Z,11.33
2019-01-23T10:12:48.652Z,10.53
2019-01-23T10:15:19.900Z,9.80
2019-01-23T10:17:47.472Z,8.20
2019-01-23T10:20:15.047Z,9.50
2019-01-23T10:22:43.096Z,8.77
2019-01-23T10:25:10.680Z,10.70
2019-01-23T10:27:38.527Z,11.77
2019-01-23T10:30:06.460Z,12.43
2019-01-23T10:32:34.019Z,12.90
2019-01-23T10:35:01.612Z,13.73
2019-01-23T10:37:29.399Z,14.23
2019-01-23T10:39:57.020Z,14.47
2019-01-23T10:42:24.615Z,14.47
2019-01-23T10:44:52.209Z,15.40
2019-01-23T10:47:19.808Z,15.30
2019-01-23T10:49:47.388Z,14.30
2019-01-23T10:52:14.955Z,14.43
2019-01-23T10:54:42.553Z,14.90
2019-01-23T10:57:10.220Z,15.13
2019-01-23T10:59:37.811Z,14.40
2019-01-23T11:02:05.599Z,15.33
2019-01-23T11:04:33.188Z,14.60
2019-01-23T11:07:00.898Z,14.00
2019-01-23T11:09:28.562Z,15.50
2019-01-23T11:11:56.194Z,15.00
2019-01-23T11:14:23.789Z,16.53
2019-01-23T11:16:51.363Z,15.43
2019-01-23T11:19:18.959Z,16.50
2019-01-23T11:21:46.580Z,17.57
2019-01-23T11:24:14.196Z,16.70
2019-01-23T11:26:41.913Z,16.57
2019-01-23T11:29:09.652Z,15.60
2019-01-23T11:31:37.332Z,15.63
2019-01-23T11:34:04.895Z,14.37
2019-01-23T11:36:32.529Z,14.00
2019-01-23T11:39:00.103Z,15.00
2019-01-23T11:41:27.727Z,13.20
2019-01-23T11:43:55.322Z,13.03
2019-01-23T11:46:22.882Z,14.67
2019-01-23T11:48:50.772Z,15.00
2019-01-23T11:51:18.348Z,14.57
2019-01-23T11:53:45.951Z,14.77
2019-01-23T11:56:13.533Z,14.40
2019-01-23T11:58:41.253Z,14.60
2019-01-23T12:01:08.876Z,14.83
2019-01-23T12:03:36.448Z,15.70
2019-01-23T12:06:04.240Z,14.80
2019-01-23T12:08:31.820Z,16.23
2019-01-23T12:10:59.642Z,17.90
2019-01-23T12:13:27.297Z,17.73
2019-01-23T12:15:54.908Z,18.33
2019-01-23T12:18:22.448Z,18.13
2019-01-23T12:20:50.076Z,17.90
2019-01-23T12:23:17.732Z,18.50
2019-01-23T12:25:45.383Z,19.50
2019-01-23T12:28:12.992Z,19.27
2019-01-23T12:30:40.669Z,17.63
2019-01-23T12:33:08.257Z,17.43
2019-01-23T12:35:36.125Z,18.47
2019-01-23T12:38:03.879Z,18.43
2019-01-23T12:40:31.449Z,18.07
2019-01-23T12:42:59.040Z,18.97
2019-01-23T12:45:27.404Z,18.33
2019-01-23T12:47:55.188Z,18.10
2019-01-23T12:50:25.280Z,18.60
2019-01-23T12:52:53.280Z,18.93
2019-01-23T12:55:20.864Z,19.57
2019-01-23T12:57:48.788Z,18.77
2019-01-23T13:00:22.788Z,16.87
2019-01-23T13:02:50.357Z,16.10
2019-01-23T13:05:19.070Z,15.73
2019-01-23T13:07:47.009Z,15.37
2019-01-23T13:10:16.502Z,14.03
2019-01-23T13:12:44.202Z,12.73
2019-01-23T13:15:13.652Z,13.57
2019-01-23T13:17:41.853Z,10.93
2019-01-23T13:20:11.135Z,10.93
2019-01-23T13:22:38.864Z,11.73
2019-01-23T13:25:09.668Z,14.17
2019-01-23T13:27:37.312Z,14.93
2019-01-23T13:30:06.605Z,18.13
2019-01-23T13:32:34.200Z,20.60
2019-01-23T13:35:01.928Z,19.37
2019-01-23T13:37:29.492Z,19.57
2019-01-23T13:39:59.507Z,19.50
2019-01-23T13:42:27.108Z,19.07
2019-01-23T13:44:54.735Z,19.40
2019-01-23T13:47:22.308Z,19.70
2019-01-23T13:49:49.900Z,19.63
2019-01-23T13:52:17.512Z,19.13
2019-01-23T13:54:45.120Z,19.07
2019-01-23T13:57:12.824Z,19.63
2019-01-23T13:59:40.459Z,19.83
2019-01-23T14:02:08.366Z,20.33
2019-01-23T14:04:35.920Z,20.13
2019-01-23T14:07:03.548Z,19.40
2019-01-23T14:09:31.164Z,19.70
2019-01-23T14:11:58.761Z,19.73
2019-01-23T14:14:26.380Z,19.30
2019-01-23T14:16:53.959Z,20.63
2019-01-23T14:19:21.549Z,21.27
2019-01-23T14:21:49.160Z,21.13
2019-01-23T14:24:17.066Z,20.80
2019-01-23T14:26:44.679Z,20.07
2019-01-23T14:29:12.360Z,20.80
2019-01-23T14:31:40.032Z,21.70
2019-01-23T14:34:07.608Z,21.47
2019-01-23T14:36:35.216Z,22.33
2019-01-23T14:39:04.660Z,22.00
2019-01-23T14:41:32.520Z,21.43
2019-01-23T14:44:00.100Z,23.47
2019-01-23T14:46:27.736Z,23.17
2019-01-23T14:48:55.316Z,22.70
2019-01-23T14:51:23.012Z,22.23
2019-01-23T14:53:53.827Z,21.70
2019-01-23T14:56:21.512Z,21.70
2019-01-23T14:58:53.003Z,22.47
2019-01-23T15:01:20.572Z,22.23
2019-01-23T15:03:48.201Z,21.43
2019-01-23T15:06:15.787Z,21.30
2019-01-23T15:08:43.456Z,22.00
2019-01-23T15:11:11.214Z,21.60
2019-01-23T15:13:38.804Z,22.60
2019-01-23T15:16:06.424Z,23.00
2019-01-23T15:18:33.984Z,22.93
2019-01-23T15:21:01.787Z,22.80
2019-01-23T15:23:29.412Z,23.07
2019-01-23T15:25:57.697Z,22.83
2019-01-23T15:28:25.289Z,22.10
2019-01-23T15:30:53.122Z,22.93
2019-01-23T15:33:20.856Z,23.67
2019-01-23T15:35:48.485Z,23.17
2019-01-23T15:38:16.068Z,22.77
2019-01-23T15:40:43.769Z,24.07
2019-01-23T15:43:11.339Z,25.37
2019-01-23T15:45:40.106Z,25.23
2019-01-23T15:48:07.731Z,24.13
2019-01-23T15:50:35.370Z,23.80
2019-01-23T15:53:02.998Z,25.67
2019-01-23T15:55:30.656Z,24.80
2019-01-23T15:57:58.275Z,25.40
2019-01-23T16:00:27.778Z,25.43
2019-01-23T16:02:55.640Z,25.60
2019-01-23T16:05:23.205Z,28.87
2019-01-23T16:07:53.085Z,32.53
2019-01-23T16:10:22.604Z,35.83
2019-01-23T16:12:50.436Z,35.60
2019-01-23T16:15:19.613Z,33.27
2019-01-23T16:17:47.213Z,35.30
2019-01-23T16:20:14.910Z,31.30
2019-01-23T16:22:43.476Z,28.23
2019-01-23T16:25:12.121Z,28.30
2019-01-23T16:27:39.736Z,32.30
2019-01-23T16:30:11.664Z,32.73
2019-01-23T16:32:39.264Z,32.27
2019-01-23T16:35:07.292Z,28.27
2019-01-23T16:37:34.924Z,29.13
2019-01-23T16:40:03.046Z,27.27
2019-01-23T16:42:30.633Z,26.77
2019-01-23T16:44:58.263Z,26.53
2019-01-23T16:47:26.144Z,26.83
2019-01-23T16:49:53.784Z,25.47
2019-01-23T16:52:21.660Z,25.13
2019-01-23T16:54:49.281Z,26.30
2019-01-23T16:57:16.856Z,26.27
2019-01-23T16:59:44.439Z,25.90
2019-01-23T17:02:12.048Z,26.93
2019-01-23T17:04:39.680Z,24.67
2019-01-23T17:07:07.256Z,25.53
2019-01-23T17:09:34.940Z,26.10
2019-01-23T17:12:09.089Z,26.67
2019-01-23T17:14:32.152Z,26.77
2019-01-23T17:16:59.748Z,27.73
2019-01-23T17:19:27.372Z,27.07
2019-01-23T17:21:54.966Z,28.13
2019-01-23T17:24:22.561Z,26.80
2019-01-23T17:26:50.173Z,26.63
2019-01-23T17:29:17.797Z,27.27
2019-01-23T17:31:45.473Z,27.33
2019-01-23T17:34:13.077Z,25.13
2019-01-23T17:36:40.668Z,27.83
2019-01-23T17:39:09.071Z,25.87
2019-01-23T17:41:36.680Z,26.30
2019-01-23T17:44:04.955Z,26.17
2019-01-23T17:46:32.751Z,27.03
2019-01-23T17:49:00.365Z,27.43
2019-01-23T17:51:27.987Z,58.33
2019-01-23T17:53:55.628Z,57.63
2019-01-23T17:56:23.393Z,79.63
2019-01-23T17:58:51.064Z,33.73
2019-01-23T18:01:18.676Z,29.07
2019-01-23T18:03:46.323Z,33.40
2019-01-23T18:06:13.912Z,33.63
2019-01-23T18:08:41.554Z,33.60
2019-01-23T18:11:09.124Z,33.73
2019-01-23T18:13:36.801Z,40.40
2019-01-23T18:16:07.952Z,36.23
2019-01-23T18:18:35.720Z,35.50
2019-01-23T18:21:03.876Z,36.37
2019-01-23T18:23:31.595Z,35.30
2019-01-23T18:25:59.193Z,34.67
2019-01-23T18:28:26.789Z,35.77
2019-01-23T18:33:28.217Z,34.23
2019-01-23T18:36:15.300Z,30.73
2019-01-23T18:39:05.852Z,31.67
2019-01-23T18:42:08.450Z,29.20
2019-01-23T18:44:48.565Z,27.67
2019-01-23T18:47:34.756Z,29.93
2019-01-23T18:50:24.945Z,36.77
2019-01-23T18:52:52.535Z,31.07
2019-01-23T18:55:21.992Z,28.27
2019-01-23T18:57:49.592Z,28.10
2019-01-23T19:00:18.716Z,27.47
2019-01-23T19:02:46.415Z,28.50
2019-01-23T19:05:16.360Z,28.83
2019-01-23T19:07:43.965Z,30.13
2019-01-23T19:10:12.144Z,26.97
2019-01-23T19:12:39.760Z,25.63
2019-01-23T19:15:09.238Z,26.73
2019-01-23T19:17:36.846Z,26.13
2019-01-23T19:20:07.711Z,25.60
2019-01-23T19:22:35.339Z,26.53
2019-01-23T19:25:03.392Z,26.40
2019-01-23T19:27:30.984Z,25.67
2019-01-23T19:29:58.574Z,26.93
2019-01-23T19:32:26.172Z,25.07
2019-01-23T19:34:54.134Z,26.27
2019-01-23T19:37:21.695Z,25.07
2019-01-23T19:39:49.288Z,24.37
2019-01-23T19:42:16.963Z,27.47
2019-01-23T19:44:44.680Z,23.83
2019-01-23T19:47:13.355Z,24.07
2019-01-23T19:49:40.945Z,24.90
2019-01-23T19:52:08.739Z,24.73
2019-01-23T19:54:36.405Z,24.27
2019-01-23T19:57:03.973Z,24.47
2019-01-23T19:59:31.748Z,23.20
2019-01-23T20:01:59.436Z,23.63
2019-01-23T20:04:27.054Z,22.90
2019-01-23T20:06:54.631Z,23.53
2019-01-23T20:09:22.208Z,24.10
2019-01-23T20:11:49.819Z,23.57
2019-01-23T20:14:17.415Z,24.23
2019-01-23T20:16:45.017Z,23.73
2019-01-23T20:19:13.801Z,23.07
2019-01-23T20:21:41.404Z,24.07
2019-01-23T20:24:09.044Z,23.67
2019-01-23T20:26:37.156Z,24.40
2019-01-23T20:29:05.268Z,24.07
2019-01-23T20:31:33.024Z,23.80
2019-01-23T20:34:00.597Z,23.90
2019-01-23T20:36:28.213Z,25.70
2019-01-23T20:38:55.784Z,24.03
2019-01-23T20:41:23.380Z,22.97
2019-01-23T20:43:50.976Z,22.30
2019-01-23T20:46:18.580Z,21.73
2019-01-23T20:48:47.112Z,23.07
2019-01-23T20:51:14.683Z,23.97
2019-01-23T20:53:42.283Z,23.70
2019-01-23T20:56:09.873Z,22.43
2019-01-23T20:58:37.501Z,26.27
2019-01-23T21:01:05.173Z,28.60
2019-01-23T21:03:35.098Z,28.80
2019-01-23T21:06:02.287Z,29.67
2019-01-23T21:08:29.903Z,29.40
2019-01-23T21:10:57.492Z,28.40
2019-01-23T21:13:25.113Z,29.20
2019-01-23T21:15:52.703Z,31.90
2019-01-23T21:18:20.335Z,29.43
2019-01-23T21:20:48.205Z,30.83
2019-01-23T21:23:16.464Z,29.60
2019-01-23T21:25:44.060Z,30.67
2019-01-23T21:28:11.682Z,30.77
2019-01-23T21:30:39.424Z,29.20
2019-01-23T21:33:07.307Z,29.50
2019-01-23T21:35:35.132Z,29.20
2019-01-23T21:38:02.796Z,28.17
2019-01-23T21:40:31.693Z,30.73
2019-01-23T21:42:59.797Z,27.77
2019-01-23T21:45:28.248Z,22.70
2019-01-23T21:47:56.376Z,22.37
2019-01-23T21:50:24.079Z,21.73
2019-01-23T21:52:51.969Z,20.57
2019-01-23T21:55:20.883Z,22.13
2019-01-23T21:57:48.696Z,21.70
2019-01-23T22:00:22.132Z,21.90
2019-01-23T22:02:50.055Z,20.93
2019-01-23T22:05:17.652Z,21.17
2019-01-23T22:07:45.251Z,22.23
2019-01-23T22:10:13.322Z,21.47
2019-01-23T22:12:41.031Z,21.10
2019-01-23T22:15:11.627Z,19.17
2019-01-23T22:17:39.294Z,32.90
2019-01-23T22:20:09.732Z,21.07
2019-01-23T22:22:37.408Z,21.53
2019-01-23T22:25:05.385Z,20.17
2019-01-23T22:27:33.308Z,20.67
2019-01-23T22:30:00.911Z,20.60
2019-01-23T22:32:28.620Z,19.57
2019-01-23T22:34:56.259Z,24.90
2019-01-23T22:37:23.867Z,22.83
2019-01-23T22:39:51.529Z,19.97
2019-01-23T22:42:19.108Z,20.03
2019-01-23T22:44:46.717Z,19.53
2019-01-23T22:47:14.472Z,19.50
2019-01-23T22:49:42.096Z,21.03
2019-01-23T22:52:09.734Z,21.97
2019-01-23T22:54:37.404Z,21.60
2019-01-23T22:57:05.072Z,21.87
2019-01-23T22:59:32.699Z,22.97
2019-01-23T23:02:00.316Z,23.33
2019-01-23T23:04:27.907Z,24.17
2019-01-23T23:06:55.512Z,24.23
2019-01-23T23:09:23.068Z,23.50
2019-01-23T23:11:50.647Z,23.60
2019-01-23T23:14:18.227Z,24.03
2019-01-23T23:16:45.820Z,23.23
2019-01-23T23:19:13.391Z,24.27
2019-01-23T23:21:40.988Z,24.33
2019-01-23T23:24:08.548Z,26.10
2019-01-23T23:26:36.212Z,24.83
2019-01-23T23:29:04.103Z,24.93
2019-01-23T23:31:31.713Z,25.47
2019-01-23T23:33:59.312Z,25.53
2019-01-23T23:36:26.963Z,25.67
2019-01-23T23:38:54.496Z,25.53
2019-01-23T23:41:22.058Z,28.70
2019-01-23T23:43:50.411Z,27.33
2019-01-23T23:46:18.072Z,29.03
2019-01-23T23:48:46.544Z,26.77
2019-01-23T23:51:14.201Z,27.43
2019-01-23T23:53:41.831Z,27.10
2019-01-23T23:56:09.681Z,28.33
2019-01-23T23:58:37.360Z,29.13
